Time;durP1;ratioP1;P1;durP2;ratioP2;P2;SDS_P1;SDS_P2;PMS_P1;PMS_P2;Temp;Humidity;BMP_temperature;BMP_pressure;BME280_temperature;BME280_humidity;BME280_pressure;Samples;Min_cycle;Max_cycle;Signal;HPM_P1;HPM_P2
2023/09/10 00:01:21;;;;;;;30.33;25.95;;;18.20;99.90;;;;;;4988432;28;20045;-88
2023/09/10 00:03:47;;;;;;;34.05;30.23;;;18.20;99.90;;;;;;5016519;28;20049;-88
2023/09/10 00:06:13;;;;;;;33.88;30.25;;;18.10;99.90;;;;;;4983487;28;20041;-88
2023/09/10 00:08:38;;;;;;;36.45;32.45;;;18.00;99.90;;;;;;5008574;28;20042;-88
2023/09/10 00:11:07;;;;;;;34.30;30.60;;;17.90;99.90;;;;;;5016247;28;20042;-88
2023/09/10 00:13:33;;;;;;;33.47;29.73;;;17.90;99.90;;;;;;5016264;28;20466;-88
2023/09/10 00:15:58;;;;;;;33.90;29.48;;;17.90;99.90;;;;;;5033226;28;20128;-88
2023/09/10 00:18:24;;;;;;;31.63;27.63;;;18.00;99.90;;;;;;5032775;28;20068;-88
2023/09/10 00:20:52;;;;;;;33.40;29.80;;;18.00;99.90;;;;;;4999750;28;20481;-88
2023/09/10 00:23:18;;;;;;;31.10;27.80;;;17.90;99.90;;;;;;5015323;28;20049;-82
2023/09/10 00:25:44;;;;;;;29.90;26.67;;;18.00;99.90;;;;;;5015980;28;20037;-82
2023/09/10 00:28:09;;;;;;;30.55;27.23;;;17.90;99.90;;;;;;5032933;28;20046;-82
2023/09/10 00:30:35;;;;;;;31.10;27.67;;;17.90;99.90;;;;;;5024053;28;20062;-82
2023/09/10 00:33:01;;;;;;;30.88;27.45;;;17.90;99.90;;;;;;5029363;28;20374;-82
2023/09/10 00:35:28;;;;;;;31.75;28.15;;;17.90;99.90;;;;;;5030925;28;20045;-82
2023/09/10 00:37:53;;;;;;;33.78;29.95;;;17.90;99.90;;;;;;5032161;28;20052;-82
2023/09/10 00:40:19;;;;;;;31.83;28.42;;;17.90;99.90;;;;;;4999472;28;20440;-82
2023/09/10 00:42:45;;;;;;;31.30;27.83;;;17.80;99.90;;;;;;5015736;28;20050;-82
2023/09/10 00:45:14;;;;;;;31.45;28.02;;;17.80;99.90;;;;;;5032329;28;20048;-82
2023/09/10 00:47:45;;;;;;;32.45;28.08;;;17.70;99.90;;;;;;5036977;28;20051;-81
2023/09/10 00:50:13;;;;;;;33.07;28.63;;;17.70;99.90;;;;;;5025154;28;20132;-81
2023/09/10 00:52:46;;;;;;;38.03;33.47;;;17.70;99.90;;;;;;5033579;28;20287;-82
2023/09/10 00:55:13;;;;;;;35.70;31.48;;;17.70;99.90;;;;;;5015409;28;20048;-82
2023/09/10 00:57:39;;;;;;;34.03;29.52;;;17.60;99.90;;;;;;5012227;28;20433;-82
2023/09/10 01:00:09;;;;;;;36.15;31.75;;;17.60;99.90;;;;;;5026918;28;20045;-82
2023/09/10 01:02:36;;;;;;;33.63;29.92;;;17.60;99.90;;;;;;4999365;28;20446;-82
2023/09/10 01:05:01;;;;;;;34.60;29.13;;;17.60;99.90;;;;;;5006946;28;20041;-82
2023/09/10 01:07:27;;;;;;;35.90;29.95;;;17.60;99.90;;;;;;5025457;28;20041;-82
2023/09/10 01:09:53;;;;;;;37.38;32.85;;;17.60;99.90;;;;;;5014973;28;20033;-82
2023/09/10 01:12:35;;;;;;;38.03;32.80;;;17.50;99.90;;;;;;5014335;28;20430;-82
2023/09/10 01:15:04;;;;;;;35.55;30.58;;;17.50;99.90;;;;;;5022373;28;20128;-82
2023/09/10 01:17:40;;;;;;;35.83;32.00;;;17.50;99.90;;;;;;5014875;28;20049;-82
2023/09/10 01:20:53;;;;;;;35.85;31.88;;;17.40;99.90;;;;;;5031740;28;20045;-83
2023/09/10 01:23:48;;;;;;;39.60;33.45;;;17.40;99.90;;;;;;4991801;28;20045;-82
2023/09/10 01:26:14;;;;;;;41.70;34.92;;;17.40;99.90;;;;;;4988255;28;20111;-82
2023/09/10 01:28:40;;;;;;;39.50;34.63;;;17.30;99.90;;;;;;4998152;28;20037;-82
2023/09/10 01:31:05;;;;;;;40.63;34.78;;;17.30;99.90;;;;;;5014710;28;20085;-82
2023/09/10 01:33:40;;;;;;;40.22;34.45;;;17.30;99.90;;;;;;5012195;28;20045;-82
2023/09/10 01:36:16;;;;;;;35.55;30.10;;;17.30;99.90;;;;;;5027270;28;20037;-82
2023/09/10 01:38:57;;;;;;;39.03;33.72;;;17.30;99.90;;;;;;5031191;28;20041;-82
2023/09/10 01:41:25;;;;;;;42.60;35.35;;;17.30;99.90;;;;;;5008761;28;20085;-82
2023/09/10 01:43:52;;;;;;;38.15;33.22;;;17.30;99.90;;;;;;5030832;28;20099;-82
2023/09/10 01:46:19;;;;;;;39.65;33.80;;;17.30;99.90;;;;;;4994740;28;20052;-82
2023/09/10 01:48:45;;;;;;;47.92;40.58;;;17.40;99.90;;;;;;5021551;28;20393;-82
2023/09/10 01:51:10;;;;;;;46.42;37.85;;;17.30;99.90;;;;;;5014759;28;20044;-82
2023/09/10 01:53:36;;;;;;;42.17;35.55;;;17.30;99.90;;;;;;5031311;28;20041;-82
2023/09/10 01:56:02;;;;;;;36.75;32.00;;;17.30;99.90;;;;;;5014429;28;20072;-82
2023/09/10 01:58:28;;;;;;;47.72;39.25;;;17.20;99.90;;;;;;5014128;28;20068;-82
2023/09/10 02:00:53;;;;;;;44.63;37.88;;;17.30;99.90;;;;;;5019864;28;20041;-82
2023/09/10 02:03:19;;;;;;;42.65;36.47;;;17.30;99.90;;;;;;4995391;28;20041;-82
2023/09/10 02:05:45;;;;;;;32.97;29.42;;;17.20;99.90;;;;;;4964103;28;20633;-82
2023/09/10 02:08:10;;;;;;;40.60;35.25;;;17.10;99.90;;;;;;4997116;28;20041;-82
2023/09/10 02:10:36;;;;;;;37.90;33.75;;;17.10;99.90;;;;;;4997316;28;20099;-82
2023/09/10 02:13:05;;;;;;;38.60;33.00;;;17.10;99.90;;;;;;5010985;28;20037;-83
2023/09/10 02:15:30;;;;;;;34.47;30.25;;;17.10;99.90;;;;;;5030433;28;20037;-82
2023/09/10 02:17:56;;;;;;;32.92;28.60;;;17.10;99.90;;;;;;4989245;28;20126;-82
2023/09/10 02:20:22;;;;;;;31.98;28.33;;;17.00;99.90;;;;;;5027521;28;20586;-82
2023/09/10 02:22:48;;;;;;;31.98;28.50;;;16.90;99.90;;;;;;5014353;28;20128;-82
2023/09/10 02:25:14;;;;;;;36.33;30.77;;;16.90;99.90;;;;;;4998491;28;20042;-82
2023/09/10 02:27:40;;;;;;;34.35;28.90;;;16.90;99.90;;;;;;5014178;28;20044;-82
2023/09/10 02:30:07;;;;;;;31.88;28.52;;;16.80;99.90;;;;;;4994581;28;20413;-83
2023/09/10 02:32:34;;;;;;;32.38;27.38;;;16.80;99.90;;;;;;5008428;28;20048;-82
2023/09/10 02:35:00;;;;;;;30.00;26.75;;;16.80;99.90;;;;;;5014472;28;20048;-83
2023/09/10 02:37:25;;;;;;;31.67;28.13;;;16.70;99.90;;;;;;5013900;28;20045;-82
2023/09/10 02:39:51;;;;;;;34.22;30.52;;;16.70;99.90;;;;;;5006500;28;20046;-82
2023/09/10 02:42:17;;;;;;;37.08;31.70;;;16.70;99.90;;;;;;4978470;28;20042;-83
2023/09/10 02:44:43;;;;;;;29.63;26.48;;;16.70;99.90;;;;;;5027132;28;20104;-82
2023/09/10 02:47:09;;;;;;;30.83;27.52;;;16.70;99.90;;;;;;5020659;28;20083;-83
2023/09/10 02:49:38;;;;;;;31.90;27.63;;;16.60;99.90;;;;;;4998405;28;20455;-83
2023/09/10 02:52:03;;;;;;;34.55;29.25;;;16.60;99.90;;;;;;5012561;28;20504;-83
2023/09/10 02:54:29;;;;;;;33.65;29.45;;;16.60;99.90;;;;;;5013780;28;20116;-82
2023/09/10 02:56:55;;;;;;;39.50;31.92;;;16.70;99.90;;;;;;4997730;28;20041;-82
2023/09/10 02:59:25;;;;;;;40.65;34.83;;;16.60;99.90;;;;;;5013488;28;20041;-82
2023/09/10 03:01:52;;;;;;;38.85;31.83;;;16.60;99.90;;;;;;5029962;28;20041;-82
2023/09/10 03:04:18;;;;;;;39.72;34.83;;;16.50;99.90;;;;;;5015214;28;20075;-80
2023/09/10 03:06:45;;;;;;;40.90;34.92;;;16.50;99.90;;;;;;5025074;28;20034;-80
2023/09/10 03:09:11;;;;;;;45.28;36.75;;;16.50;99.90;;;;;;5022681;28;20040;-82
2023/09/10 03:11:38;;;;;;;38.13;32.13;;;16.50;99.90;;;;;;5033494;28;20037;-82
2023/09/10 03:14:07;;;;;;;40.70;34.70;;;16.50;99.90;;;;;;5017905;28;20029;-82
2023/09/10 03:16:34;;;;;;;42.97;34.63;;;16.60;99.90;;;;;;5033936;28;20184;-83
2023/09/10 03:19:00;;;;;;;41.72;35.40;;;16.50;99.90;;;;;;5014113;28;20054;-82
2023/09/10 03:21:27;;;;;;;40.53;34.50;;;16.60;99.90;;;;;;5025219;28;20102;-83
2023/09/10 03:23:53;;;;;;;48.22;39.55;;;16.60;99.90;;;;;;5008961;28;20490;-82
2023/09/10 03:26:19;;;;;;;43.20;36.25;;;16.60;99.90;;;;;;5034501;28;20049;-82
2023/09/10 03:28:45;;;;;;;41.33;35.38;;;16.50;99.90;;;;;;5033322;28;20131;-82
2023/09/10 03:31:11;;;;;;;39.35;33.92;;;16.50;99.90;;;;;;5016687;28;20085;-82
2023/09/10 03:33:37;;;;;;;38.78;34.33;;;16.60;99.90;;;;;;5000734;28;20046;-82
2023/09/10 03:36:03;;;;;;;45.33;37.38;;;16.60;99.90;;;;;;5033774;28;20045;-82
2023/09/10 03:38:29;;;;;;;45.10;39.08;;;16.60;99.90;;;;;;5000439;28;20029;-83
2023/09/10 03:40:55;;;;;;;46.15;38.38;;;16.60;99.90;;;;;;5017269;28;20064;-82
2023/09/10 03:43:21;;;;;;;42.55;37.42;;;16.60;99.90;;;;;;5013944;28;20120;-83
2023/09/10 03:45:46;;;;;;;42.53;37.13;;;16.60;99.90;;;;;;5016789;28;20065;-82
2023/09/10 03:48:15;;;;;;;41.08;36.58;;;16.60;99.90;;;;;;5016297;28;20088;-82
2023/09/10 03:50:41;;;;;;;40.10;35.72;;;16.60;99.90;;;;;;5032940;28;20079;-82
2023/09/10 03:53:07;;;;;;;46.50;39.05;;;16.50;99.90;;;;;;5032981;28;20540;-83
2023/09/10 03:55:33;;;;;;;45.10;40.13;;;16.50;99.90;;;;;;5032983;28;20073;-83
2023/09/10 03:57:58;;;;;;;40.58;35.92;;;16.50;99.90;;;;;;5033083;28;20045;-83
2023/09/10 04:00:24;;;;;;;39.75;35.47;;;16.50;99.90;;;;;;5016048;28;20370;-83
2023/09/10 04:02:51;;;;;;;51.53;42.90;;;16.50;99.90;;;;;;5021766;28;20492;-83
2023/09/10 04:05:17;;;;;;;43.13;37.70;;;16.50;99.90;;;;;;4999468;28;20049;-83
2023/09/10 04:07:43;;;;;;;37.30;32.83;;;16.50;99.90;;;;;;5008573;28;20041;-83
2023/09/10 04:10:09;;;;;;;37.70;33.53;;;16.50;99.90;;;;;;5014724;28;20488;-83
2023/09/10 04:12:36;;;;;;;37.15;33.25;;;16.50;99.90;;;;;;5015102;28;20092;-83
2023/09/10 04:15:03;;;;;;;43.75;39.05;;;16.50;99.90;;;;;;5016287;28;20120;-83
2023/09/10 04:17:29;;;;;;;41.63;35.95;;;16.50;99.90;;;;;;5015916;28;20107;-83
2023/09/10 04:19:57;;;;;;;52.60;44.28;;;16.50;99.90;;;;;;5016262;28;20047;-83
2023/09/10 04:22:23;;;;;;;43.83;38.67;;;16.40;99.90;;;;;;5015199;28;20060;-83
2023/09/10 04:24:49;;;;;;;43.08;38.47;;;16.40;99.90;;;;;;5032431;28;20389;-83
2023/09/10 04:27:15;;;;;;;47.38;40.80;;;16.40;99.90;;;;;;5032735;28;20045;-83
2023/09/10 04:29:41;;;;;;;47.83;41.15;;;16.40;99.90;;;;;;5015598;28;20048;-83
2023/09/10 04:32:07;;;;;;;54.65;45.03;;;16.30;99.90;;;;;;4999531;28;20029;-83
2023/09/10 04:34:38;;;;;;;;;;;16.30;99.90;;;;;;5017088;28;20489;-83
2023/09/10 04:37:04;;;;;;;54.05;44.85;;;16.30;99.90;;;;;;5032691;28;19917;-83
2023/09/10 04:39:30;;;;;;;64.63;52.03;;;16.30;99.90;;;;;;5032283;28;20089;-83
2023/09/10 04:41:56;;;;;;;57.78;46.47;;;16.30;99.90;;;;;;5023613;28;20116;-83
2023/09/10 04:44:22;;;;;;;50.78;44.42;;;16.40;99.90;;;;;;5032127;28;20175;-83
2023/09/10 04:46:48;;;;;;;55.15;44.83;;;16.30;99.90;;;;;;5006368;28;20471;-83
2023/09/10 04:49:13;;;;;;;47.45;41.03;;;16.30;99.90;;;;;;5015340;28;20120;-83
2023/09/10 04:51:39;;;;;;;52.72;44.38;;;16.30;99.90;;;;;;5031452;28;20039;-83
2023/09/10 04:54:05;;;;;;;58.95;48.28;;;16.30;99.90;;;;;;5015543;28;20037;-83
2023/09/10 04:56:31;;;;;;;59.30;47.72;;;16.30;99.90;;;;;;5012287;28;20041;-83
2023/09/10 04:58:56;;;;;;;62.88;48.50;;;16.30;99.90;;;;;;5031670;28;20050;-83
2023/09/10 05:01:22;;;;;;;54.65;44.28;;;16.30;99.90;;;;;;5010894;28;20152;-83
2023/09/10 05:03:48;;;;;;;52.60;43.85;;;16.30;99.90;;;;;;5015449;28;20061;-83
2023/09/10 05:06:14;;;;;;;48.53;43.20;;;16.30;99.90;;;;;;5014837;28;20045;-83
2023/09/10 05:08:39;;;;;;;47.95;41.42;;;16.30;99.90;;;;;;5014971;28;20156;-83
2023/09/10 05:11:05;;;;;;;46.58;39.92;;;16.30;99.90;;;;;;5031605;28;20042;-83
2023/09/10 05:13:31;;;;;;;43.72;38.63;;;16.30;99.90;;;;;;5014917;28;20044;-83
2023/09/10 05:15:57;;;;;;;44.63;38.60;;;16.20;99.90;;;;;;5031346;28;20046;-83
2023/09/10 05:18:26;;;;;;;44.75;39.42;;;16.30;99.90;;;;;;5014818;28;20118;-83
2023/09/10 05:20:53;;;;;;;45.97;39.53;;;16.30;99.90;;;;;;5032166;28;20505;-82
2023/09/10 05:23:22;;;;;;;45.45;39.35;;;16.30;99.90;;;;;;5003177;28;20049;-81
2023/09/10 05:25:51;;;;;;;48.97;40.40;;;16.30;99.90;;;;;;5037335;28;20046;-81
2023/09/10 05:28:16;;;;;;;51.67;44.10;;;16.30;99.90;;;;;;5015593;28;20041;-83
2023/09/10 05:30:42;;;;;;;56.00;46.30;;;16.30;99.90;;;;;;4998485;28;20057;-83
2023/09/10 05:33:08;;;;;;;51.50;42.92;;;16.40;99.90;;;;;;5014785;28;20045;-83
2023/09/10 05:35:37;;;;;;;55.20;47.72;;;16.40;99.90;;;;;;5015440;28;20029;-83
2023/09/10 05:38:03;;;;;;;49.80;43.15;;;16.40;99.90;;;;;;5031236;28;20049;-83
2023/09/10 05:40:36;;;;;;;53.67;42.33;;;16.50;99.90;;;;;;5030871;28;20045;-83
2023/09/10 05:43:05;;;;;;;49.10;41.92;;;16.50;99.90;;;;;;5027078;28;20091;-83
2023/09/10 05:45:35;;;;;;;41.40;37.10;;;16.50;99.90;;;;;;5015027;28;20049;-83
2023/09/10 05:48:01;;;;;;;44.78;40.03;;;16.50;99.90;;;;;;5030933;28;20045;-83
2023/09/10 05:50:27;;;;;;;42.58;37.72;;;16.50;99.90;;;;;;5011718;28;20053;-83
2023/09/10 05:52:56;;;;;;;47.63;41.45;;;16.50;99.90;;;;;;5031056;28;20045;-83
2023/09/10 05:55:23;;;;;;;46.03;39.13;;;16.50;99.90;;;;;;5030794;28;20049;-83
2023/09/10 05:57:52;;;;;;;44.67;38.47;;;16.50;99.90;;;;;;5030942;28;20041;-83
2023/09/10 06:00:19;;;;;;;44.63;38.08;;;16.50;99.90;;;;;;5031083;28;20116;-83
2023/09/10 06:02:47;;;;;;;43.45;38.72;;;16.60;99.90;;;;;;5009075;28;20132;-83
2023/09/10 06:05:12;;;;;;;45.10;38.40;;;16.60;99.90;;;;;;4997023;28;20529;-83
2023/09/10 06:07:38;;;;;;;44.28;37.67;;;16.60;99.90;;;;;;5030206;28;20160;-82
2023/09/10 06:10:08;;;;;;;44.58;37.05;;;16.70;99.90;;;;;;5014350;28;20485;-82
2023/09/10 06:12:36;;;;;;;38.63;33.55;;;16.80;99.90;;;;;;5029560;28;20504;-83
2023/09/10 06:15:01;;;;;;;37.47;33.33;;;16.80;99.90;;;;;;4997157;28;20041;-83
2023/09/10 06:17:28;;;;;;;40.80;35.13;;;16.90;99.90;;;;;;5013029;28;20050;-83
2023/09/10 06:19:53;;;;;;;42.08;36.08;;;17.00;99.90;;;;;;5030307;28;20048;-83
2023/09/10 06:22:19;;;;;;;46.28;39.60;;;17.10;99.90;;;;;;4996609;28;20042;-83
2023/09/10 06:24:45;;;;;;;58.45;47.47;;;17.20;99.90;;;;;;5014279;28;20124;-83
2023/09/10 06:27:10;;;;;;;57.65;46.20;;;17.30;99.90;;;;;;5006053;28;20463;-83
2023/09/10 06:29:36;;;;;;;56.33;46.13;;;17.40;99.90;;;;;;4997188;28;20113;-82
2023/09/10 06:32:11;;;;;;;58.10;46.97;;;17.50;99.90;;;;;;4993065;28;20052;-83
2023/09/10 06:34:37;;;;;;;58.80;47.55;;;17.60;99.90;;;;;;5030654;28;20124;-82
2023/09/10 06:37:03;;;;;;;57.58;49.00;;;17.60;99.90;;;;;;5014256;28;20375;-83
2023/09/10 06:39:38;;;;;;;60.13;50.20;;;17.80;99.90;;;;;;5014127;28;20467;-82
2023/09/10 06:42:21;;;;;;;60.95;48.72;;;17.80;99.90;;;;;;5008523;28;20120;-82
2023/09/10 06:44:47;;;;;;;58.60;48.78;;;18.00;99.90;;;;;;5027365;28;20440;-82
2023/09/10 06:47:13;;;;;;;56.55;47.95;;;18.00;99.90;;;;;;5017765;28;20037;-87
2023/09/10 06:49:38;;;;;;;62.25;51.17;;;18.10;99.90;;;;;;5000504;28;20033;-87
2023/09/10 06:52:08;;;;;;;54.25;46.40;;;18.20;99.90;;;;;;5001152;28;20091;-87
2023/09/10 06:54:34;;;;;;;53.85;45.85;;;18.40;99.90;;;;;;5017918;28;20367;-88
2023/09/10 06:57:00;;;;;;;58.63;48.03;;;18.50;99.90;;;;;;5017305;28;20048;-87
2023/09/10 06:59:28;;;;;;;52.95;44.33;;;18.50;99.90;;;;;;5018183;28;20049;-87
2023/09/10 07:01:53;;;;;;;40.30;34.13;;;18.60;99.90;;;;;;5017256;28;20045;-87
2023/09/10 07:04:21;;;;;;;50.47;41.00;;;18.70;99.90;;;;;;5006025;28;20053;-88
2023/09/10 07:06:49;;;;;;;55.33;47.47;;;18.90;99.90;;;;;;5018009;28;20072;-88
2023/09/10 07:09:22;;;;;;;54.78;48.75;;;19.00;99.90;;;;;;5018429;28;20052;-88
2023/09/10 07:11:49;;;;;;;55.53;46.38;;;19.10;99.90;;;;;;5018619;28;20041;-87
2023/09/10 07:14:15;;;;;;;45.00;39.67;;;19.20;99.90;;;;;;5013857;28;20049;-88
2023/09/10 07:16:41;;;;;;;53.13;44.72;;;19.30;99.90;;;;;;5034800;28;20052;-87
2023/09/10 07:19:07;;;;;;;48.88;43.25;;;19.40;99.90;;;;;;5017125;28;20076;-86
2023/09/10 07:21:33;;;;;;;49.90;43.42;;;19.50;99.90;;;;;;5016590;28;20095;-87
2023/09/10 07:23:58;;;;;;;52.63;45.53;;;19.60;99.90;;;;;;5015765;28;20077;-88
2023/09/10 07:26:24;;;;;;;54.75;46.97;;;19.70;99.90;;;;;;5000858;28;20045;-87
2023/09/10 07:28:50;;;;;;;47.97;42.92;;;19.70;99.90;;;;;;5005338;28;20038;-88
2023/09/10 07:31:16;;;;;;;45.63;40.70;;;19.80;99.90;;;;;;5017614;28;20137;-88
2023/09/10 07:33:42;;;;;;;43.15;38.45;;;19.90;99.90;;;;;;4982400;28;20405;-88
2023/09/10 07:36:07;;;;;;;41.70;37.28;;;19.90;99.90;;;;;;5017613;28;20059;-88
2023/09/10 07:38:33;;;;;;;42.58;37.95;;;20.00;99.90;;;;;;5003429;28;20139;-89
2023/09/10 07:40:59;;;;;;;40.50;36.25;;;20.00;99.90;;;;;;5017859;28;20088;-90
2023/09/10 07:43:25;;;;;;;39.85;35.65;;;20.10;99.90;;;;;;5040600;28;20049;-89
2023/09/10 07:45:50;;;;;;;39.65;35.50;;;20.10;99.90;;;;;;5048119;28;20045;-89
2023/09/10 07:48:16;;;;;;;39.03;34.95;;;20.20;99.90;;;;;;5017559;28;20045;-89
2023/09/10 07:50:51;;;;;;;37.53;33.53;;;20.30;99.90;;;;;;5033751;28;20041;-88
2023/09/10 07:53:17;;;;;;;35.05;31.48;;;20.40;99.90;;;;;;5017454;28;20041;-88
2023/09/10 07:55:43;;;;;;;37.05;33.15;;;20.50;99.90;;;;;;5017062;28;20400;-88
2023/09/10 07:58:09;;;;;;;36.28;32.67;;;20.50;99.90;;;;;;5017161;28;20043;-88
2023/09/10 08:00:36;;;;;;;35.88;32.08;;;20.60;99.90;;;;;;5017250;28;20563;-88
2023/09/10 08:03:03;;;;;;;38.97;34.78;;;20.70;99.90;;;;;;5034215;28;20806;-88
2023/09/10 08:05:31;;;;;;;37.38;33.42;;;20.80;99.90;;;;;;5017400;28;20104;-88
2023/09/10 08:08:02;;;;;;;35.63;31.60;;;20.90;99.90;;;;;;5017107;28;20037;-88
2023/09/10 08:10:29;;;;;;;;;;;21.00;99.90;;;;;;5005397;28;20042;-90
2023/09/10 08:12:54;;;;;;;36.22;32.45;;;21.10;99.90;;;;;;4997996;28;19917;-91
2023/09/10 08:15:23;;;;;;;38.60;34.47;;;21.20;99.90;;;;;;4981477;28;20042;-88
2023/09/10 08:17:53;;;;;;;38.70;34.70;;;21.30;99.90;;;;;;4997596;28;20145;-89
2023/09/10 08:20:20;;;;;;;37.80;33.87;;;21.30;99.90;;;;;;5018098;28;20044;-89
2023/09/10 08:22:46;;;;;;;37.83;33.83;;;21.40;99.90;;;;;;5000693;28;20151;-89
2023/09/10 08:25:12;;;;;;;33.90;30.35;;;21.50;99.90;;;;;;5033313;28;20405;-89
2023/09/10 08:27:38;;;;;;;35.97;32.33;;;21.60;99.90;;;;;;5000493;28;20052;-89
2023/09/10 08:30:05;;;;;;;31.17;28.08;;;21.80;99.90;;;;;;5000187;28;20046;-88
2023/09/10 08:32:35;;;;;;;29.52;26.60;;;21.90;99.90;;;;;;5016897;28;20486;-91
2023/09/10 08:35:03;;;;;;;30.00;26.95;;;21.90;99.90;;;;;;5033357;28;20076;-89
2023/09/10 08:37:29;;;;;;;29.88;26.88;;;22.10;99.90;;;;;;5033203;28;20045;-89
2023/09/10 08:39:56;;;;;;;29.23;26.27;;;22.20;99.90;;;;;;4984403;28;20133;-89
2023/09/10 08:42:37;;;;;;;27.70;24.90;;;22.30;99.90;;;;;;5016699;28;20072;-88
2023/09/10 08:45:07;;;;;;;27.33;24.20;;;22.40;99.90;;;;;;5017294;28;20045;-88
2023/09/10 08:47:41;;;;;;;22.45;20.25;;;22.50;99.90;;;;;;5034143;28;20041;-89
2023/09/10 08:50:08;;;;;;;22.77;20.48;;;22.60;99.90;;;;;;5016857;28;20075;-89
2023/09/10 08:52:39;;;;;;;20.63;18.50;;;22.70;99.90;;;;;;5016813;28;20397;-90
2023/09/10 08:55:06;;;;;;;;;;;22.80;99.90;;;;;;5004854;28;20038;-89
2023/09/10 08:57:33;;;;;;;19.27;16.10;;;22.90;99.90;;;;;;5013641;28;20337;-89
2023/09/10 09:00:01;;;;;;;16.40;14.73;;;23.00;99.90;;;;;;5015208;28;20397;-88
2023/09/10 09:02:27;;;;;;;19.45;17.45;;;23.10;99.90;;;;;;5015372;28;20101;-88
2023/09/10 09:04:52;;;;;;;20.48;18.38;;;23.20;99.90;;;;;;4996175;28;20120;-88
2023/09/10 09:07:21;;;;;;;22.13;19.95;;;23.40;99.90;;;;;;4994493;28;20142;-87
2023/09/10 09:09:53;;;;;;;19.77;17.73;;;23.40;99.90;;;;;;5012621;28;20045;-89
2023/09/10 09:12:20;;;;;;;20.30;18.13;;;23.50;99.90;;;;;;5016017;28;20041;-88
2023/09/10 09:14:48;;;;;;;18.80;16.77;;;23.60;99.90;;;;;;4999392;28;20558;-82
2023/09/10 09:17:14;;;;;;;18.35;16.33;;;23.70;99.90;;;;;;5031903;28;20517;-81
2023/09/10 09:19:44;;;;;;;19.13;17.23;;;23.80;99.90;;;;;;4998562;28;20099;-82
2023/09/10 09:22:11;;;;;;;19.88;17.88;;;24.00;99.90;;;;;;5015631;28;20104;-82
2023/09/10 09:24:37;;;;;;;20.05;18.15;;;24.00;99.90;;;;;;5015161;28;20128;-82
2023/09/10 09:27:04;;;;;;;22.35;19.98;;;24.10;99.90;;;;;;5014452;28;20099;-82
2023/09/10 09:29:31;;;;;;;19.92;17.92;;;24.20;99.90;;;;;;4981989;28;20041;-82
2023/09/10 09:31:56;;;;;;;20.15;18.13;;;24.30;99.90;;;;;;5013962;28;20099;-83
2023/09/10 09:34:22;;;;;;;19.38;17.48;;;24.40;99.90;;;;;;5013965;28;20041;-82
2023/09/10 09:36:51;;;;;;;19.38;17.38;;;24.40;99.90;;;;;;5014957;28;20050;-81
2023/09/10 09:39:20;;;;;;;18.50;16.58;;;24.50;99.90;;;;;;5030706;28;20084;-82
2023/09/10 09:41:51;;;;;;;19.23;16.50;;;24.50;99.90;;;;;;5012278;28;20116;-82
2023/09/10 09:44:17;;;;;;;18.48;16.60;;;24.70;99.90;;;;;;5028494;28;20511;-82
2023/09/10 09:46:45;;;;;;;20.75;17.38;;;24.70;99.90;;;;;;5014487;28;20053;-82
2023/09/10 09:49:11;;;;;;;21.10;18.08;;;24.80;99.90;;;;;;5009735;28;20085;-82
2023/09/10 09:51:39;;;;;;;18.52;16.50;;;24.80;99.90;;;;;;5026131;28;20065;-83
2023/09/10 09:54:10;;;;;;;19.25;17.20;;;24.90;99.90;;;;;;5015019;28;20038;-82
2023/09/10 09:56:37;;;;;;;18.60;16.83;;;25.00;99.90;;;;;;5031098;28;20045;-81
2023/09/10 09:59:03;;;;;;;19.20;17.02;;;25.00;99.90;;;;;;5015741;28;20098;-81
2023/09/10 10:01:29;;;;;;;22.02;16.13;;;25.10;99.90;;;;;;5026226;28;20097;-80
2023/09/10 10:03:57;;;;;;;17.85;16.08;;;25.10;99.90;;;;;;5034930;28;20052;-83
2023/09/10 10:06:23;;;;;;;19.05;16.92;;;25.20;99.90;;;;;;5013599;28;20053;-82
2023/09/10 10:08:50;;;;;;;17.70;16.00;;;25.20;99.90;;;;;;5013750;28;20046;-81
2023/09/10 10:11:30;;;;;;;17.17;15.40;;;25.30;99.90;;;;;;5014169;28;20048;-82
2023/09/10 10:13:59;;;;;;;18.13;15.40;;;25.40;99.90;;;;;;5003586;28;20041;-82
2023/09/10 10:16:29;;;;;;;17.80;16.00;;;25.40;99.90;;;;;;5031481;28;20030;-82
2023/09/10 10:18:55;;;;;;;15.73;14.00;;;25.40;99.90;;;;;;5014379;28;20038;-82
2023/09/10 10:21:41;;;;;;;17.33;15.70;;;25.50;99.90;;;;;;5035003;28;20088;-80
2023/09/10 10:24:08;;;;;;;17.25;15.23;;;25.50;99.90;;;;;;5027212;28;20099;-81
2023/09/10 10:26:34;;;;;;;16.23;14.73;;;25.60;99.90;;;;;;5018358;28;20037;-82
2023/09/10 10:29:00;;;;;;;17.75;13.98;;;25.60;99.90;;;;;;5031821;28;20067;-82
2023/09/10 10:31:36;;;;;;;16.30;14.45;;;25.60;99.90;;;;;;5018120;28;20052;-82
2023/09/10 10:34:39;;;;;;;14.85;13.38;;;25.70;99.90;;;;;;5034704;28;20040;-81
2023/09/10 10:37:15;;;;;;;15.20;13.65;;;25.90;99.90;;;;;;5021336;28;20057;-82
2023/09/10 10:39:53;;;;;;;15.32;13.70;;;25.90;99.90;;;;;;5024418;28;20046;-81
2023/09/10 10:42:29;;;;;;;19.20;15.18;;;26.00;99.90;;;;;;5007070;28;20048;-81
2023/09/10 10:44:58;;;;;;;17.58;13.45;;;26.00;99.90;;;;;;5036162;28;20045;-81
2023/09/10 10:47:25;;;;;;;16.48;13.80;;;26.10;99.90;;;;;;5019283;28;20046;-81
2023/09/10 10:49:56;;;;;;;17.50;15.02;;;26.10;99.90;;;;;;5033732;28;20037;-82
2023/09/10 10:52:30;;;;;;;17.87;15.03;;;26.10;99.90;;;;;;5010880;28;20152;-81
2023/09/10 10:54:56;;;;;;;15.63;13.27;;;26.10;99.90;;;;;;5028382;28;20099;-81
2023/09/10 10:57:23;;;;;;;15.82;14.13;;;26.20;99.90;;;;;;5033545;28;20041;-81
2023/09/10 10:59:50;;;;;;;16.73;15.07;;;26.30;99.90;;;;;;5016732;28;20099;-82
2023/09/10 11:02:21;;;;;;;15.93;14.48;;;26.30;99.90;;;;;;5016344;28;20034;-80
2023/09/10 11:05:01;;;;;;;15.55;14.02;;;26.30;99.90;;;;;;5033416;28;20120;-81
2023/09/10 11:07:29;;;;;;;16.85;15.20;;;26.50;99.90;;;;;;5034055;28;20405;-82
2023/09/10 11:09:59;;;;;;;16.80;13.65;;;26.50;99.90;;;;;;5017753;28;20048;-82
2023/09/10 11:12:25;;;;;;;14.65;13.15;;;26.60;99.90;;;;;;5017358;28;20540;-81
2023/09/10 11:15:00;;;;;;;17.05;15.23;;;26.70;99.90;;;;;;5003316;28;20124;-82
2023/09/10 11:17:32;;;;;;;17.40;13.73;;;26.70;99.90;;;;;;4998482;28;20044;-82
2023/09/10 11:19:58;;;;;;;14.98;13.57;;;26.80;99.90;;;;;;4993930;28;20096;-81
2023/09/10 11:22:25;;;;;;;14.82;13.50;;;26.80;99.90;;;;;;5015276;28;20115;-82
2023/09/10 11:25:07;;;;;;;17.33;13.05;;;26.90;99.90;;;;;;5034137;28;20392;-82
2023/09/10 11:27:34;;;;;;;18.23;14.15;;;27.00;99.90;;;;;;4997738;28;20046;-83
2023/09/10 11:30:06;;;;;;;14.68;13.23;;;27.00;99.90;;;;;;5012529;28;20029;-82
2023/09/10 11:32:32;;;;;;;16.52;14.52;;;27.00;99.90;;;;;;5016417;28;20041;-81
2023/09/10 11:35:36;;;;;;;15.82;14.20;;;27.00;99.90;;;;;;4994129;28;20154;-82
2023/09/10 11:38:03;;;;;;;16.05;14.35;;;27.10;99.90;;;;;;4976647;28;20165;-82
2023/09/10 11:40:28;;;;;;;14.98;13.40;;;27.10;99.90;;;;;;5006103;28;20083;-82
2023/09/10 11:42:54;;;;;;;14.65;13.13;;;27.20;99.90;;;;;;5016406;28;20132;-82
2023/09/10 11:45:21;;;;;;;14.63;13.02;;;27.20;99.90;;;;;;4997537;28;20109;-82
2023/09/10 11:47:49;;;;;;;15.13;12.60;;;27.30;99.90;;;;;;5032887;28;20046;-83
2023/09/10 11:50:21;;;;;;;14.07;12.07;;;27.40;99.90;;;;;;5018275;28;20068;-84
2023/09/10 11:52:47;;;;;;;13.95;12.75;;;27.40;99.90;;;;;;5033327;28;20094;-82
2023/09/10 11:55:14;;;;;;;14.82;13.43;;;27.40;99.90;;;;;;5016962;28;20497;-83
2023/09/10 11:57:40;;;;;;;15.55;11.77;;;27.50;99.90;;;;;;5016970;28;20095;-83
2023/09/10 12:00:09;;;;;;;18.13;13.07;;;27.60;99.90;;;;;;5033207;28;20124;-82
2023/09/10 12:02:36;;;;;;;13.25;11.88;;;27.60;99.90;;;;;;5014648;28;20041;-83
2023/09/10 12:05:06;;;;;;;13.57;12.18;;;27.60;99.90;;;;;;4999573;28;20037;-83
2023/09/10 12:07:32;;;;;;;17.35;12.77;;;27.60;99.90;;;;;;5016165;28;20045;-81
2023/09/10 12:09:57;;;;;;;16.95;12.32;;;27.60;99.90;;;;;;5005933;28;20107;-82
2023/09/10 12:12:30;;;;;;;14.95;11.95;;;27.70;99.90;;;;;;4993846;28;20093;-83
2023/09/10 12:14:56;;;;;;;13.23;11.93;;;27.70;99.90;;;;;;5014360;28;20045;-82
2023/09/10 12:17:23;;;;;;;16.27;10.65;;;27.70;99.90;;;;;;5024596;28;20045;-81
2023/09/10 12:19:49;;;;;;;14.68;11.43;;;27.90;99.90;;;;;;5036555;28;20042;-82
2023/09/10 12:22:18;;;;;;;15.02;11.43;;;28.00;99.90;;;;;;5036246;28;20046;-82
2023/09/10 12:24:44;;;;;;;15.95;11.18;;;28.00;99.90;;;;;;5017251;28;20085;-82
2023/09/10 12:27:13;;;;;;;13.65;11.82;;;28.00;99.90;;;;;;5032563;28;20033;-82
2023/09/10 12:29:39;;;;;;;12.43;10.23;;;28.00;99.90;;;;;;5001364;28;20052;-82
2023/09/10 12:32:05;;;;;;;15.07;11.13;;;28.10;99.90;;;;;;5032011;28;20050;-82